sensor_id;sensor_type;location;lat;lon;timestamp;P1;durP1;ratioP1;P2;durP2;ratioP2
6850;SDS011;3464;42.728;23.296;2023-07-13T00:00:08;16.90;;;7.40;;
6850;SDS011;3464;42.728;23.296;2023-07-13T00:02:36;17.80;;;7.73;;
6850;SDS011;3464;42.728;23.296;2023-07-13T00:05:03;17.83;;;7.67;;
6850;SDS011;3464;42.728;23.296;2023-07-13T00:07:30;17.97;;;8.80;;
6850;SDS011;3464;42.728;23.296;2023-07-13T00:09:56;17.60;;;8.00;;
6850;SDS011;3464;42.728;23.296;2023-07-13T00:12:24;14.93;;;7.90;;
6850;SDS011;3464;42.728;23.296;2023-07-13T00:14:51;21.87;;;8.93;;
6850;SDS011;3464;42.728;23.296;2023-07-13T00:17:18;20.57;;;8.90;;
6850;SDS011;3464;42.728;23.296;2023-07-13T00:19:44;19.20;;;9.20;;
6850;SDS011;3464;42.728;23.296;2023-07-13T00:22:11;17.93;;;9.23;;
6850;SDS011;3464;42.728;23.296;2023-07-13T00:24:37;19.63;;;9.17;;
6850;SDS011;3464;42.728;23.296;2023-07-13T00:27:04;22.43;;;9.30;;
6850;SDS011;3464;42.728;23.296;2023-07-13T00:29:30;20.30;;;9.00;;
6850;SDS011;3464;42.728;23.296;2023-07-13T00:31:57;18.83;;;8.80;;
6850;SDS011;3464;42.728;23.296;2023-07-13T00:34:24;16.63;;;8.47;;
6850;SDS011;3464;42.728;23.296;2023-07-13T00:36:50;22.20;;;8.80;;
6850;SDS011;3464;42.728;23.296;2023-07-13T00:39:17;18.93;;;8.30;;
6850;SDS011;3464;42.728;23.296;2023-07-13T00:41:43;15.90;;;8.10;;
6850;SDS011;3464;42.728;23.296;2023-07-13T00:44:13;16.47;;;8.93;;
6850;SDS011;3464;42.728;23.296;2023-07-13T00:46:37;21.07;;;8.70;;
6850;SDS011;3464;42.728;23.296;2023-07-13T00:49:04;16.57;;;8.53;;
6850;SDS011;3464;42.728;23.296;2023-07-13T00:51:31;18.90;;;8.40;;
6850;SDS011;3464;42.728;23.296;2023-07-13T00:53:57;19.50;;;8.73;;
6850;SDS011;3464;42.728;23.296;2023-07-13T00:56:23;16.70;;;8.47;;
6850;SDS011;3464;42.728;23.296;2023-07-13T00:58:49;15.93;;;8.40;;
6850;SDS011;3464;42.728;23.296;2023-07-13T01:01:16;15.47;;;7.73;;
6850;SDS011;3464;42.728;23.296;2023-07-13T01:03:43;17.60;;;8.60;;
6850;SDS011;3464;42.728;23.296;2023-07-13T01:06:09;15.40;;;8.17;;
6850;SDS011;3464;42.728;23.296;2023-07-13T01:08:35;18.70;;;8.30;;
6850;SDS011;3464;42.728;23.296;2023-07-13T01:11:02;20.37;;;8.77;;
6850;SDS011;3464;42.728;23.296;2023-07-13T01:13:29;15.50;;;7.83;;
6850;SDS011;3464;42.728;23.296;2023-07-13T01:15:56;16.23;;;8.00;;
6850;SDS011;3464;42.728;23.296;2023-07-13T01:18:23;15.80;;;8.40;;
6850;SDS011;3464;42.728;23.296;2023-07-13T01:20:54;16.10;;;8.27;;
6850;SDS011;3464;42.728;23.296;2023-07-13T01:23:23;16.10;;;8.60;;
6850;SDS011;3464;42.728;23.296;2023-07-13T01:25:49;18.13;;;8.53;;
6850;SDS011;3464;42.728;23.296;2023-07-13T01:28:16;17.80;;;8.83;;
6850;SDS011;3464;42.728;23.296;2023-07-13T01:30:43;16.10;;;8.33;;
6850;SDS011;3464;42.728;23.296;2023-07-13T01:33:09;15.20;;;8.57;;
6850;SDS011;3464;42.728;23.296;2023-07-13T01:35:36;15.33;;;8.30;;
6850;SDS011;3464;42.728;23.296;2023-07-13T01:38:02;17.53;;;8.80;;
6850;SDS011;3464;42.728;23.296;2023-07-13T01:40:29;18.73;;;8.57;;
6850;SDS011;3464;42.728;23.296;2023-07-13T01:42:55;15.30;;;8.33;;
6850;SDS011;3464;42.728;23.296;2023-07-13T01:45:22;18.27;;;8.77;;
6850;SDS011;3464;42.728;23.296;2023-07-13T01:47:49;16.80;;;8.60;;
6850;SDS011;3464;42.728;23.296;2023-07-13T01:50:15;16.60;;;8.60;;
6850;SDS011;3464;42.728;23.296;2023-07-13T01:52:42;18.40;;;9.00;;
6850;SDS011;3464;42.728;23.296;2023-07-13T01:55:08;16.60;;;9.00;;
6850;SDS011;3464;42.728;23.296;2023-07-13T01:57:35;17.30;;;8.90;;
6850;SDS011;3464;42.728;23.296;2023-07-13T02:00:03;15.93;;;8.70;;
6850;SDS011;3464;42.728;23.296;2023-07-13T02:02:29;19.63;;;8.93;;
6850;SDS011;3464;42.728;23.296;2023-07-13T02:04:56;16.10;;;8.47;;
6850;SDS011;3464;42.728;23.296;2023-07-13T02:07:24;16.30;;;8.37;;
6850;SDS011;3464;42.728;23.296;2023-07-13T02:09:50;15.50;;;8.90;;
6850;SDS011;3464;42.728;23.296;2023-07-13T02:12:17;15.27;;;8.17;;
6850;SDS011;3464;42.728;23.296;2023-07-13T02:14:44;17.60;;;9.37;;
6850;SDS011;3464;42.728;23.296;2023-07-13T02:17:11;15.93;;;8.90;;
6850;SDS011;3464;42.728;23.296;2023-07-13T02:19:37;20.17;;;9.40;;
6850;SDS011;3464;42.728;23.296;2023-07-13T02:22:04;19.97;;;9.50;;
6850;SDS011;3464;42.728;23.296;2023-07-13T02:24:31;16.63;;;9.00;;
6850;SDS011;3464;42.728;23.296;2023-07-13T02:26:58;16.63;;;8.67;;
6850;SDS011;3464;42.728;23.296;2023-07-13T02:29:27;16.03;;;9.60;;
6850;SDS011;3464;42.728;23.296;2023-07-13T02:31:54;16.87;;;8.60;;
6850;SDS011;3464;42.728;23.296;2023-07-13T02:34:21;18.53;;;9.70;;
6850;SDS011;3464;42.728;23.296;2023-07-13T02:36:47;20.60;;;9.93;;
6850;SDS011;3464;42.728;23.296;2023-07-13T02:39:14;18.10;;;9.40;;
6850;SDS011;3464;42.728;23.296;2023-07-13T02:41:40;18.17;;;9.47;;
6850;SDS011;3464;42.728;23.296;2023-07-13T02:44:07;17.30;;;8.57;;
6850;SDS011;3464;42.728;23.296;2023-07-13T02:46:34;15.60;;;8.30;;
6850;SDS011;3464;42.728;23.296;2023-07-13T02:49:00;21.80;;;8.90;;
6850;SDS011;3464;42.728;23.296;2023-07-13T02:51:27;20.20;;;8.60;;
6850;SDS011;3464;42.728;23.296;2023-07-13T02:53:53;18.73;;;8.90;;
6850;SDS011;3464;42.728;23.296;2023-07-13T02:56:22;22.40;;;8.40;;
6850;SDS011;3464;42.728;23.296;2023-07-13T02:58:48;19.30;;;9.13;;
6850;SDS011;3464;42.728;23.296;2023-07-13T03:01:15;16.70;;;8.03;;
6850;SDS011;3464;42.728;23.296;2023-07-13T03:03:44;23.13;;;9.50;;
6850;SDS011;3464;42.728;23.296;2023-07-13T03:06:11;18.90;;;8.93;;
6850;SDS011;3464;42.728;23.296;2023-07-13T03:08:38;19.20;;;9.23;;
6850;SDS011;3464;42.728;23.296;2023-07-13T03:11:08;18.07;;;8.50;;
6850;SDS011;3464;42.728;23.296;2023-07-13T03:13:34;18.10;;;9.20;;
6850;SDS011;3464;42.728;23.296;2023-07-13T03:16:00;16.27;;;8.20;;
6850;SDS011;3464;42.728;23.296;2023-07-13T03:18:27;17.57;;;8.47;;
6850;SDS011;3464;42.728;23.296;2023-07-13T03:20:54;18.70;;;8.40;;
6850;SDS011;3464;42.728;23.296;2023-07-13T03:23:21;24.00;;;9.20;;
6850;SDS011;3464;42.728;23.296;2023-07-13T03:25:47;21.30;;;8.57;;
6850;SDS011;3464;42.728;23.296;2023-07-13T03:28:15;22.57;;;8.47;;
6850;SDS011;3464;42.728;23.296;2023-07-13T03:30:43;21.60;;;9.03;;
6850;SDS011;3464;42.728;23.296;2023-07-13T03:33:10;20.63;;;8.93;;
6850;SDS011;3464;42.728;23.296;2023-07-13T03:35:39;22.83;;;8.47;;
6850;SDS011;3464;42.728;23.296;2023-07-13T03:38:04;16.47;;;8.00;;
6850;SDS011;3464;42.728;23.296;2023-07-13T03:40:30;22.40;;;9.07;;
6850;SDS011;3464;42.728;23.296;2023-07-13T03:42:57;18.83;;;8.03;;
6850;SDS011;3464;42.728;23.296;2023-07-13T03:45:23;23.80;;;9.03;;
6850;SDS011;3464;42.728;23.296;2023-07-13T03:47:50;23.50;;;9.40;;
6850;SDS011;3464;42.728;23.296;2023-07-13T03:50:16;16.70;;;8.50;;
6850;SDS011;3464;42.728;23.296;2023-07-13T03:52:43;17.50;;;8.00;;
6850;SDS011;3464;42.728;23.296;2023-07-13T03:55:09;22.13;;;8.33;;
6850;SDS011;3464;42.728;23.296;2023-07-13T03:57:36;21.20;;;7.90;;
6850;SDS011;3464;42.728;23.296;2023-07-13T04:00:03;17.23;;;7.50;;
6850;SDS011;3464;42.728;23.296;2023-07-13T04:02:30;21.13;;;8.57;;
6850;SDS011;3464;42.728;23.296;2023-07-13T04:04:57;18.63;;;8.07;;
6850;SDS011;3464;42.728;23.296;2023-07-13T04:07:23;29.73;;;9.30;;
6850;SDS011;3464;42.728;23.296;2023-07-13T04:09:50;19.23;;;7.50;;
6850;SDS011;3464;42.728;23.296;2023-07-13T04:12:17;18.43;;;7.40;;
6850;SDS011;3464;42.728;23.296;2023-07-13T04:14:43;24.90;;;8.23;;
6850;SDS011;3464;42.728;23.296;2023-07-13T04:17:10;16.97;;;7.63;;
6850;SDS011;3464;42.728;23.296;2023-07-13T04:19:36;24.27;;;8.30;;
6850;SDS011;3464;42.728;23.296;2023-07-13T04:22:03;24.90;;;8.37;;
6850;SDS011;3464;42.728;23.296;2023-07-13T04:24:30;22.33;;;8.87;;
6850;SDS011;3464;42.728;23.296;2023-07-13T04:26:56;40.37;;;8.30;;
6850;SDS011;3464;42.728;23.296;2023-07-13T04:29:23;22.33;;;8.97;;
6850;SDS011;3464;42.728;23.296;2023-07-13T04:31:50;15.67;;;6.43;;
6850;SDS011;3464;42.728;23.296;2023-07-13T04:34:17;15.77;;;7.03;;
6850;SDS011;3464;42.728;23.296;2023-07-13T04:36:43;21.47;;;7.27;;
6850;SDS011;3464;42.728;23.296;2023-07-13T04:39:10;17.40;;;7.53;;
6850;SDS011;3464;42.728;23.296;2023-07-13T04:41:37;21.50;;;7.33;;
6850;SDS011;3464;42.728;23.296;2023-07-13T04:44:03;16.67;;;7.13;;
6850;SDS011;3464;42.728;23.296;2023-07-13T04:46:30;20.87;;;7.20;;
6850;SDS011;3464;42.728;23.296;2023-07-13T04:48:56;15.67;;;6.63;;
6850;SDS011;3464;42.728;23.296;2023-07-13T04:51:23;21.57;;;6.83;;
6850;SDS011;3464;42.728;23.296;2023-07-13T04:53:50;13.60;;;6.53;;
6850;SDS011;3464;42.728;23.296;2023-07-13T04:56:16;17.63;;;6.77;;
6850;SDS011;3464;42.728;23.296;2023-07-13T04:58:43;18.23;;;6.80;;
6850;SDS011;3464;42.728;23.296;2023-07-13T05:01:09;20.73;;;7.20;;
6850;SDS011;3464;42.728;23.296;2023-07-13T05:03:36;13.77;;;5.80;;
6850;SDS011;3464;42.728;23.296;2023-07-13T05:06:04;11.63;;;5.20;;
6850;SDS011;3464;42.728;23.296;2023-07-13T05:08:29;14.03;;;6.33;;
6850;SDS011;3464;42.728;23.296;2023-07-13T05:10:55;15.83;;;5.80;;
6850;SDS011;3464;42.728;23.296;2023-07-13T05:13:22;16.77;;;6.40;;
6850;SDS011;3464;42.728;23.296;2023-07-13T05:15:55;15.43;;;6.43;;
6850;SDS011;3464;42.728;23.296;2023-07-13T05:18:21;15.77;;;6.70;;
6850;SDS011;3464;42.728;23.296;2023-07-13T05:20:54;12.70;;;6.20;;
6850;SDS011;3464;42.728;23.296;2023-07-13T05:23:14;16.43;;;6.43;;
6850;SDS011;3464;42.728;23.296;2023-07-13T05:25:41;16.00;;;6.37;;
6850;SDS011;3464;42.728;23.296;2023-07-13T05:28:07;15.10;;;6.13;;
6850;SDS011;3464;42.728;23.296;2023-07-13T05:30:34;15.70;;;5.97;;
6850;SDS011;3464;42.728;23.296;2023-07-13T05:33:02;14.10;;;6.10;;
6850;SDS011;3464;42.728;23.296;2023-07-13T05:35:28;15.07;;;6.10;;
6850;SDS011;3464;42.728;23.296;2023-07-13T05:37:55;15.73;;;5.50;;
6850;SDS011;3464;42.728;23.296;2023-07-13T05:40:21;19.90;;;6.63;;
6850;SDS011;3464;42.728;23.296;2023-07-13T05:42:48;17.70;;;6.43;;
6850;SDS011;3464;42.728;23.296;2023-07-13T05:45:14;14.90;;;6.40;;
6850;SDS011;3464;42.728;23.296;2023-07-13T05:47:41;20.63;;;6.47;;
6850;SDS011;3464;42.728;23.296;2023-07-13T05:50:07;20.57;;;6.10;;
6850;SDS011;3464;42.728;23.296;2023-07-13T05:52:34;15.47;;;6.40;;
6850;SDS011;3464;42.728;23.296;2023-07-13T05:55:00;14.20;;;6.23;;
6850;SDS011;3464;42.728;23.296;2023-07-13T05:57:27;19.63;;;6.20;;
6850;SDS011;3464;42.728;23.296;2023-07-13T05:59:53;20.53;;;6.70;;
6850;SDS011;3464;42.728;23.296;2023-07-13T06:02:20;18.10;;;6.67;;
6850;SDS011;3464;42.728;23.296;2023-07-13T06:04:47;16.75;;;6.10;;
6850;SDS011;3464;42.728;23.296;2023-07-13T06:07:14;14.87;;;6.13;;
6850;SDS011;3464;42.728;23.296;2023-07-13T06:09:40;15.40;;;6.00;;
6850;SDS011;3464;42.728;23.296;2023-07-13T06:12:07;11.70;;;5.50;;
6850;SDS011;3464;42.728;23.296;2023-07-13T06:14:33;15.60;;;6.00;;
6850;SDS011;3464;42.728;23.296;2023-07-13T06:17:00;15.80;;;6.20;;
6850;SDS011;3464;42.728;23.296;2023-07-13T06:19:27;13.73;;;6.13;;
6850;SDS011;3464;42.728;23.296;2023-07-13T06:21:53;13.13;;;6.07;;
6850;SDS011;3464;42.728;23.296;2023-07-13T06:24:21;15.75;;;6.40;;
6850;SDS011;3464;42.728;23.296;2023-07-13T06:26:47;17.30;;;6.30;;
6850;SDS011;3464;42.728;23.296;2023-07-13T06:29:13;15.00;;;6.60;;
6850;SDS011;3464;42.728;23.296;2023-07-13T06:31:40;15.43;;;6.07;;
6850;SDS011;3464;42.728;23.296;2023-07-13T06:34:08;12.80;;;5.82;;
6850;SDS011;3464;42.728;23.296;2023-07-13T06:36:34;15.82;;;6.20;;
6850;SDS011;3464;42.728;23.296;2023-07-13T06:39:01;16.45;;;6.32;;
6850;SDS011;3464;42.728;23.296;2023-07-13T06:41:27;15.15;;;5.70;;
6850;SDS011;3464;42.728;23.296;2023-07-13T06:43:54;16.58;;;6.57;;
6850;SDS011;3464;42.728;23.296;2023-07-13T06:46:21;16.55;;;6.50;;
6850;SDS011;3464;42.728;23.296;2023-07-13T06:48:47;18.87;;;6.20;;
6850;SDS011;3464;42.728;23.296;2023-07-13T06:51:13;19.35;;;6.97;;
6850;SDS011;3464;42.728;23.296;2023-07-13T06:53:40;22.00;;;6.87;;
6850;SDS011;3464;42.728;23.296;2023-07-13T06:56:06;21.05;;;6.90;;
6850;SDS011;3464;42.728;23.296;2023-07-13T06:58:33;19.23;;;6.43;;
6850;SDS011;3464;42.728;23.296;2023-07-13T07:00:59;17.30;;;6.40;;
6850;SDS011;3464;42.728;23.296;2023-07-13T07:03:27;20.58;;;7.25;;
6850;SDS011;3464;42.728;23.296;2023-07-13T07:05:53;17.85;;;5.68;;
6850;SDS011;3464;42.728;23.296;2023-07-13T07:08:20;17.42;;;6.65;;
6850;SDS011;3464;42.728;23.296;2023-07-13T07:10:47;18.17;;;6.87;;
6850;SDS011;3464;42.728;23.296;2023-07-13T07:13:13;20.77;;;6.90;;
6850;SDS011;3464;42.728;23.296;2023-07-13T07:15:40;15.15;;;5.90;;
6850;SDS011;3464;42.728;23.296;2023-07-13T07:18:06;23.73;;;7.30;;
6850;SDS011;3464;42.728;23.296;2023-07-13T07:20:33;16.10;;;6.47;;
6850;SDS011;3464;42.728;23.296;2023-07-13T07:22:59;16.17;;;6.53;;
6850;SDS011;3464;42.728;23.296;2023-07-13T07:25:26;18.62;;;6.75;;
6850;SDS011;3464;42.728;23.296;2023-07-13T07:27:53;16.77;;;6.32;;
6850;SDS011;3464;42.728;23.296;2023-07-13T07:30:20;20.88;;;6.78;;
6850;SDS011;3464;42.728;23.296;2023-07-13T07:32:46;16.40;;;6.60;;
6850;SDS011;3464;42.728;23.296;2023-07-13T07:35:14;18.90;;;6.22;;
6850;SDS011;3464;42.728;23.296;2023-07-13T07:37:41;14.35;;;5.95;;
6850;SDS011;3464;42.728;23.296;2023-07-13T07:40:07;20.83;;;7.40;;
6850;SDS011;3464;42.728;23.296;2023-07-13T07:42:35;16.58;;;6.72;;
6850;SDS011;3464;42.728;23.296;2023-07-13T07:45:02;19.83;;;7.50;;
6850;SDS011;3464;42.728;23.296;2023-07-13T07:47:29;15.02;;;6.53;;
6850;SDS011;3464;42.728;23.296;2023-07-13T07:49:56;20.20;;;6.50;;
6850;SDS011;3464;42.728;23.296;2023-07-13T07:52:22;15.15;;;6.50;;
6850;SDS011;3464;42.728;23.296;2023-07-13T07:54:50;16.35;;;6.90;;
6850;SDS011;3464;42.728;23.296;2023-07-13T07:57:16;20.27;;;6.68;;
6850;SDS011;3464;42.728;23.296;2023-07-13T07:59:43;21.87;;;7.50;;
6850;SDS011;3464;42.728;23.296;2023-07-13T08:02:09;22.13;;;6.70;;
6850;SDS011;3464;42.728;23.296;2023-07-13T08:04:36;18.83;;;6.85;;
6850;SDS011;3464;42.728;23.296;2023-07-13T08:07:02;16.48;;;6.70;;
6850;SDS011;3464;42.728;23.296;2023-07-13T08:09:29;17.23;;;6.95;;
6850;SDS011;3464;42.728;23.296;2023-07-13T08:11:55;30.42;;;7.30;;
6850;SDS011;3464;42.728;23.296;2023-07-13T08:14:22;15.85;;;6.75;;
6850;SDS011;3464;42.728;23.296;2023-07-13T08:16:50;22.25;;;7.28;;
6850;SDS011;3464;42.728;23.296;2023-07-13T08:19:16;13.95;;;6.50;;
6850;SDS011;3464;42.728;23.296;2023-07-13T08:21:43;17.73;;;6.62;;
6850;SDS011;3464;42.728;23.296;2023-07-13T08:24:10;22.58;;;7.43;;
6850;SDS011;3464;42.728;23.296;2023-07-13T08:26:37;18.83;;;7.72;;
6850;SDS011;3464;42.728;23.296;2023-07-13T08:29:04;19.30;;;7.90;;
6850;SDS011;3464;42.728;23.296;2023-07-13T08:31:31;20.15;;;8.30;;
6850;SDS011;3464;42.728;23.296;2023-07-13T08:33:57;18.85;;;7.80;;
6850;SDS011;3464;42.728;23.296;2023-07-13T08:36:25;22.75;;;8.25;;
6850;SDS011;3464;42.728;23.296;2023-07-13T08:38:51;23.13;;;7.90;;
6850;SDS011;3464;42.728;23.296;2023-07-13T08:41:18;19.93;;;7.80;;
6850;SDS011;3464;42.728;23.296;2023-07-13T08:43:45;24.53;;;8.60;;
6850;SDS011;3464;42.728;23.296;2023-07-13T08:46:13;18.70;;;9.60;;
6850;SDS011;3464;42.728;23.296;2023-07-13T08:48:39;20.70;;;8.50;;
6850;SDS011;3464;42.728;23.296;2023-07-13T08:51:15;26.30;;;9.13;;
6850;SDS011;3464;42.728;23.296;2023-07-13T08:53:38;21.73;;;9.73;;
6850;SDS011;3464;42.728;23.296;2023-07-13T08:56:09;25.87;;;9.20;;
6850;SDS011;3464;42.728;23.296;2023-07-13T08:58:33;21.27;;;10.40;;
6850;SDS011;3464;42.728;23.296;2023-07-13T09:01:02;28.67;;;9.83;;
6850;SDS011;3464;42.728;23.296;2023-07-13T09:03:35;22.57;;;10.53;;
6850;SDS011;3464;42.728;23.296;2023-07-13T09:05:58;22.33;;;9.33;;
6850;SDS011;3464;42.728;23.296;2023-07-13T09:08:29;24.03;;;9.20;;
6850;SDS011;3464;42.728;23.296;2023-07-13T09:11:13;25.10;;;9.43;;
6850;SDS011;3464;42.728;23.296;2023-07-13T09:13:39;23.87;;;8.67;;
6850;SDS011;3464;42.728;23.296;2023-07-13T09:16:19;22.33;;;8.70;;
6850;SDS011;3464;42.728;23.296;2023-07-13T09:18:49;20.60;;;8.07;;
6850;SDS011;3464;42.728;23.296;2023-07-13T09:21:17;19.90;;;8.50;;
6850;SDS011;3464;42.728;23.296;2023-07-13T09:23:43;21.57;;;8.37;;
6850;SDS011;3464;42.728;23.296;2023-07-13T09:26:12;27.87;;;9.63;;
6850;SDS011;3464;42.728;23.296;2023-07-13T09:28:41;22.60;;;8.70;;
6850;SDS011;3464;42.728;23.296;2023-07-13T09:31:11;20.40;;;8.93;;
6850;SDS011;3464;42.728;23.296;2023-07-13T09:33:37;27.63;;;8.27;;
6850;SDS011;3464;42.728;23.296;2023-07-13T09:36:17;24.87;;;8.50;;
6850;SDS011;3464;42.728;23.296;2023-07-13T09:38:48;18.67;;;8.30;;
6850;SDS011;3464;42.728;23.296;2023-07-13T09:46:26;20.03;;;8.10;;
6850;SDS011;3464;42.728;23.296;2023-07-13T09:48:53;26.07;;;8.03;;
6850;SDS011;3464;42.728;23.296;2023-07-13T09:51:19;23.33;;;8.37;;
6850;SDS011;3464;42.728;23.296;2023-07-13T09:53:47;18.33;;;7.43;;
6850;SDS011;3464;42.728;23.296;2023-07-13T09:56:18;18.73;;;7.63;;
6850;SDS011;3464;42.728;23.296;2023-07-13T09:58:48;21.10;;;7.77;;
6850;SDS011;3464;42.728;23.296;2023-07-13T10:01:15;17.00;;;7.40;;
6850;SDS011;3464;42.728;23.296;2023-07-13T10:03:51;19.67;;;7.70;;
6850;SDS011;3464;42.728;23.296;2023-07-13T10:06:12;14.97;;;5.93;;
6850;SDS011;3464;42.728;23.296;2023-07-13T10:08:38;14.00;;;5.20;;
6850;SDS011;3464;42.728;23.296;2023-07-13T10:11:11;21.40;;;5.77;;
6850;SDS011;3464;42.728;23.296;2023-07-13T10:13:36;15.07;;;6.03;;
6850;SDS011;3464;42.728;23.296;2023-07-13T10:16:04;15.30;;;5.20;;
6850;SDS011;3464;42.728;23.296;2023-07-13T10:18:35;17.00;;;5.60;;
6850;SDS011;3464;42.728;23.296;2023-07-13T10:21:09;21.90;;;6.50;;
6850;SDS011;3464;42.728;23.296;2023-07-13T10:23:33;21.57;;;6.60;;
6850;SDS011;3464;42.728;23.296;2023-07-13T10:26:00;24.17;;;9.30;;
6850;SDS011;3464;42.728;23.296;2023-07-13T10:28:30;18.10;;;8.90;;
6850;SDS011;3464;42.728;23.296;2023-07-13T10:31:12;20.63;;;9.50;;
6850;SDS011;3464;42.728;23.296;2023-07-13T10:33:38;19.50;;;7.40;;
6850;SDS011;3464;42.728;23.296;2023-07-13T10:36:12;21.27;;;9.80;;
6850;SDS011;3464;42.728;23.296;2023-07-13T10:38:36;20.37;;;7.30;;
6850;SDS011;3464;42.728;23.296;2023-07-13T10:41:06;23.63;;;9.60;;
6850;SDS011;3464;42.728;23.296;2023-07-13T10:43:38;24.03;;;8.27;;
6850;SDS011;3464;42.728;23.296;2023-07-13T10:46:05;15.50;;;5.80;;
6850;SDS011;3464;42.728;23.296;2023-07-13T10:48:31;45.77;;;16.57;;
6850;SDS011;3464;42.728;23.296;2023-07-13T10:50:58;17.67;;;6.20;;
6850;SDS011;3464;42.728;23.296;2023-07-13T10:53:29;19.87;;;8.27;;
6850;SDS011;3464;42.728;23.296;2023-07-13T10:55:58;18.27;;;8.00;;
6850;SDS011;3464;42.728;23.296;2023-07-13T10:58:39;19.63;;;7.23;;
6850;SDS011;3464;42.728;23.296;2023-07-13T11:01:08;18.90;;;7.40;;
6850;SDS011;3464;42.728;23.296;2023-07-13T11:03:34;13.80;;;5.50;;
6850;SDS011;3464;42.728;23.296;2023-07-13T11:06:05;15.77;;;6.03;;
6850;SDS011;3464;42.728;23.296;2023-07-13T11:08:37;15.80;;;5.50;;
6850;SDS011;3464;42.728;23.296;2023-07-13T11:11:43;15.07;;;5.00;;
6850;SDS011;3464;42.728;23.296;2023-07-13T11:13:58;15.80;;;6.10;;
6850;SDS011;3464;42.728;23.296;2023-07-13T11:16:33;16.33;;;5.90;;
6850;SDS011;3464;42.728;23.296;2023-07-13T11:24:28;16.60;;;5.50;;
6850;SDS011;3464;42.728;23.296;2023-07-13T11:26:55;19.47;;;6.20;;
6850;SDS011;3464;42.728;23.296;2023-07-13T11:29:37;14.63;;;5.67;;
6850;SDS011;3464;42.728;23.296;2023-07-13T11:32:20;20.63;;;6.10;;
6850;SDS011;3464;42.728;23.296;2023-07-13T11:34:31;13.63;;;4.97;;
6850;SDS011;3464;42.728;23.296;2023-07-13T11:36:57;15.47;;;5.33;;
6850;SDS011;3464;42.728;23.296;2023-07-13T11:39:31;14.50;;;5.00;;
6850;SDS011;3464;42.728;23.296;2023-07-13T11:41:57;18.00;;;5.60;;
6850;SDS011;3464;42.728;23.296;2023-07-13T11:44:24;17.20;;;4.97;;
6850;SDS011;3464;42.728;23.296;2023-07-13T11:46:53;15.73;;;6.13;;
6850;SDS011;3464;42.728;23.296;2023-07-13T11:49:19;16.90;;;6.10;;
6850;SDS011;3464;42.728;23.296;2023-07-13T11:51:46;20.83;;;5.60;;
6850;SDS011;3464;42.728;23.296;2023-07-13T11:56:55;18.47;;;6.00;;
6850;SDS011;3464;42.728;23.296;2023-07-13T11:59:20;31.10;;;6.23;;
6850;SDS011;3464;42.728;23.296;2023-07-13T12:01:51;17.63;;;5.40;;
6850;SDS011;3464;42.728;23.296;2023-07-13T12:04:21;16.37;;;5.70;;
6850;SDS011;3464;42.728;23.296;2023-07-13T12:06:47;17.80;;;5.30;;
6850;SDS011;3464;42.728;23.296;2023-07-13T12:09:14;15.63;;;5.60;;
6850;SDS011;3464;42.728;23.296;2023-07-13T12:11:41;16.20;;;5.57;;
6850;SDS011;3464;42.728;23.296;2023-07-13T12:14:14;17.63;;;5.40;;
6850;SDS011;3464;42.728;23.296;2023-07-13T12:16:40;16.60;;;5.60;;
6850;SDS011;3464;42.728;23.296;2023-07-13T12:19:14;16.37;;;5.87;;
6850;SDS011;3464;42.728;23.296;2023-07-13T12:21:37;13.87;;;5.37;;
6850;SDS011;3464;42.728;23.296;2023-07-13T12:24:02;19.63;;;5.93;;
6850;SDS011;3464;42.728;23.296;2023-07-13T12:26:29;18.20;;;5.73;;
6850;SDS011;3464;42.728;23.296;2023-07-13T12:28:58;17.47;;;5.90;;
6850;SDS011;3464;42.728;23.296;2023-07-13T12:31:29;16.80;;;6.07;;
6850;SDS011;3464;42.728;23.296;2023-07-13T12:34:08;20.10;;;5.90;;
6850;SDS011;3464;42.728;23.296;2023-07-13T12:36:39;15.87;;;5.40;;
6850;SDS011;3464;42.728;23.296;2023-07-13T12:39:12;13.53;;;5.30;;
6850;SDS011;3464;42.728;23.296;2023-07-13T12:41:42;19.30;;;5.60;;
6850;SDS011;3464;42.728;23.296;2023-07-13T12:44:11;16.33;;;5.30;;
6850;SDS011;3464;42.728;23.296;2023-07-13T12:46:38;16.10;;;5.50;;
6850;SDS011;3464;42.728;23.296;2023-07-13T12:49:05;16.47;;;5.47;;
6850;SDS011;3464;42.728;23.296;2023-07-13T12:51:31;16.53;;;5.30;;
6850;SDS011;3464;42.728;23.296;2023-07-13T12:56:32;15.70;;;5.10;;
6850;SDS011;3464;42.728;23.296;2023-07-13T12:59:00;18.10;;;5.33;;
6850;SDS011;3464;42.728;23.296;2023-07-13T13:01:27;19.90;;;5.60;;
6850;SDS011;3464;42.728;23.296;2023-07-13T13:03:53;16.73;;;5.73;;
6850;SDS011;3464;42.728;23.296;2023-07-13T13:06:25;21.70;;;6.37;;
6850;SDS011;3464;42.728;23.296;2023-07-13T13:08:52;19.50;;;5.33;;
6850;SDS011;3464;42.728;23.296;2023-07-13T13:11:18;20.77;;;5.60;;
6850;SDS011;3464;42.728;23.296;2023-07-13T13:13:45;31.03;;;5.93;;
6850;SDS011;3464;42.728;23.296;2023-07-13T13:16:12;16.37;;;5.50;;
6850;SDS011;3464;42.728;23.296;2023-07-13T13:18:55;16.40;;;5.77;;
6850;SDS011;3464;42.728;23.296;2023-07-13T13:21:20;15.93;;;5.17;;
6850;SDS011;3464;42.728;23.296;2023-07-13T13:23:46;13.93;;;5.40;;
6850;SDS011;3464;42.728;23.296;2023-07-13T13:26:14;14.37;;;5.10;;
6850;SDS011;3464;42.728;23.296;2023-07-13T13:28:39;15.73;;;4.90;;
6850;SDS011;3464;42.728;23.296;2023-07-13T13:31:07;19.10;;;5.80;;
6850;SDS011;3464;42.728;23.296;2023-07-13T13:33:32;17.43;;;5.40;;
6850;SDS011;3464;42.728;23.296;2023-07-13T13:35:59;20.70;;;6.90;;
6850;SDS011;3464;42.728;23.296;2023-07-13T13:38:26;15.80;;;5.30;;
6850;SDS011;3464;42.728;23.296;2023-07-13T13:40:52;15.23;;;4.93;;
6850;SDS011;3464;42.728;23.296;2023-07-13T13:43:21;15.13;;;5.67;;
6850;SDS011;3464;42.728;23.296;2023-07-13T13:45:50;17.10;;;4.80;;
6850;SDS011;3464;42.728;23.296;2023-07-13T13:48:17;18.30;;;5.63;;
6850;SDS011;3464;42.728;23.296;2023-07-13T13:50:43;20.80;;;5.57;;
6850;SDS011;3464;42.728;23.296;2023-07-13T13:53:11;19.60;;;5.50;;
6850;SDS011;3464;42.728;23.296;2023-07-13T13:55:36;15.57;;;5.43;;
6850;SDS011;3464;42.728;23.296;2023-07-13T13:58:03;18.67;;;5.00;;
6850;SDS011;3464;42.728;23.296;2023-07-13T14:00:29;16.60;;;5.60;;
6850;SDS011;3464;42.728;23.296;2023-07-13T14:02:56;17.87;;;5.90;;
6850;SDS011;3464;42.728;23.296;2023-07-13T14:05:25;17.97;;;5.90;;
6850;SDS011;3464;42.728;23.296;2023-07-13T14:07:52;18.80;;;5.50;;
6850;SDS011;3464;42.728;23.296;2023-07-13T14:10:19;13.70;;;4.87;;
6850;SDS011;3464;42.728;23.296;2023-07-13T14:12:45;14.90;;;5.37;;
6850;SDS011;3464;42.728;23.296;2023-07-13T14:15:19;17.57;;;5.50;;
6850;SDS011;3464;42.728;23.296;2023-07-13T14:18:00;15.23;;;5.53;;
6850;SDS011;3464;42.728;23.296;2023-07-13T14:20:27;24.37;;;5.60;;
6850;SDS011;3464;42.728;23.296;2023-07-13T14:22:54;18.43;;;5.40;;
6850;SDS011;3464;42.728;23.296;2023-07-13T14:25:22;19.80;;;6.30;;
6850;SDS011;3464;42.728;23.296;2023-07-13T14:27:49;14.30;;;5.33;;
6850;SDS011;3464;42.728;23.296;2023-07-13T14:30:17;16.73;;;5.67;;
6850;SDS011;3464;42.728;23.296;2023-07-13T14:32:43;14.70;;;5.63;;
6850;SDS011;3464;42.728;23.296;2023-07-13T14:35:11;25.07;;;6.40;;
6850;SDS011;3464;42.728;23.296;2023-07-13T14:37:37;18.40;;;5.40;;
6850;SDS011;3464;42.728;23.296;2023-07-13T14:40:11;26.13;;;6.50;;
6850;SDS011;3464;42.728;23.296;2023-07-13T14:42:31;29.10;;;6.33;;
6850;SDS011;3464;42.728;23.296;2023-07-13T14:44:57;21.20;;;6.70;;
6850;SDS011;3464;42.728;23.296;2023-07-13T14:47:26;17.60;;;6.50;;
6850;SDS011;3464;42.728;23.296;2023-07-13T14:49:53;18.90;;;6.10;;
6850;SDS011;3464;42.728;23.296;2023-07-13T14:52:20;20.10;;;5.77;;
6850;SDS011;3464;42.728;23.296;2023-07-13T14:54:46;18.37;;;6.10;;
6850;SDS011;3464;42.728;23.296;2023-07-13T14:57:13;20.70;;;6.17;;
6850;SDS011;3464;42.728;23.296;2023-07-13T14:59:39;17.80;;;5.87;;
6850;SDS011;3464;42.728;23.296;2023-07-13T15:04:41;16.10;;;6.60;;
6850;SDS011;3464;42.728;23.296;2023-07-13T15:07:11;20.10;;;6.07;;